Terminal Aerodrome Forecast
Issued by NWS Birmingham, AL

Home | Current Version | Previous Version | Text Only | Print | Product List | Glossary On
Versions: 1 2 3 4 5 6 7 8 9 10 11 12 13 14 15 16 17 18 19 20 21 22 23
000
FTUS44 KBMX 211746
TAFBHM
TAF
KBHM 211746Z 2118/2218 04009KT P6SM SCT017
     FM212100 14005KT P6SM SCT015 SCT050
     FM220300 15008KT P6SM BKN015
     FM220600 17005KT 5SM TSRA BR SCT008 BKN050CB=

USA.gov is the U.S. government's official web portal to all federal, state and local government web resources and services.